Have a Safe July 4th! 

Flight Track Log - Related Links

Times and Time Zones

All times are in EDT time to prevent confusion due to time zone crossing. See the N273AY flight status page for this flight to view local times or setup timezone preferences in your user account.

Time Position Orientation Groundspeed Altitude Reporting Facility
EDT Latitude Longitude Course Direction KTS MPH feet Rate Location/Type
Fri 05:58:15 AM 41.8058 12.2159 299° West  Level FlightAware Approximate
Fri 05:59:15 AM 41.8524 12.0794 300° West  Level FlightAware Approximate
Fri 06:00:15 AM 41.9148 11.9558 299° West  Level FlightAware Approximate
Fri 06:01:15 AM 41.9675 11.8232 299° West  Level FlightAware Approximate
Fri 06:02:15 AM 42.0238 11.6930 299° West  Level FlightAware Approximate
Fri 06:03:15 AM 42.0800 11.5625 299° West  Level FlightAware Approximate
Fri 06:04:15 AM 42.1372 11.4330 299° West  Level FlightAware Approximate
Fri 06:05:15 AM 42.1931 11.3021 299° West  Level FlightAware Approximate
Fri 06:06:15 AM 42.2488 11.1709 298° West  Level FlightAware Approximate
Fri 06:07:15 AM 42.3088 11.0450 298° West  Level FlightAware Approximate
Fri 06:08:15 AM 42.3642 10.9133 298° West  Level FlightAware Approximate
Fri 06:09:15 AM 42.4177 10.7807 298° West  Level FlightAware Approximate
Fri 06:10:15 AM 42.4728 10.6485 297° West  Level FlightAware Approximate
Fri 06:11:15 AM 42.5262 10.5152 297° West  Level FlightAware Approximate
Fri 06:12:15 AM 42.5810 10.3826 297° West  Level FlightAware Approximate
Fri 06:13:15 AM 42.6376 10.2512 296° West  Level FlightAware Approximate
Fri 06:14:15 AM 42.6904 10.1170 296° West  Level FlightAware Approximate
Fri 06:15:15 AM 42.7448 9.9837 295° West  Level FlightAware Approximate
Fri 06:16:15 AM 42.7938 9.8481 295° West  Level FlightAware Approximate
Fri 06:17:15 AM 42.8479 9.7144 294° West  Level FlightAware Approximate
Fri 06:23:11 AM 43.0124 9.2038 295° West 427 491 32,400  Level FlightAware ADS-B
Fri 06:23:43 AM 43.0392 9.1258 295° West 434 499 32,500 182 Climbing FlightAware ADS-B
Fri 06:24:17 AM 43.0688 9.0391 295° West 438 504 32,600 185 Climbing FlightAware ADS-B
Fri 06:24:48 AM 43.0957 8.9606 295° West 443 510 32,700 590 Climbing FlightAware ADS-B
Fri 06:25:18 AM 43.1216 8.8848 295° West 440 506 33,200 590 Climbing FlightAware ADS-B
Fri 06:25:49 AM 43.1471 8.8098 295° West 442 509 33,300 393 Climbing FlightAware ADS-B
Fri 06:26:19 AM 43.1739 8.7303 295° West 442 509 33,600 581 Climbing FlightAware ADS-B
Fri 06:26:51 AM 43.2008 8.6508 295° West 441 507 33,900 387 Climbing FlightAware ADS-B
Fri 06:27:21 AM 43.2266 8.5741 295° West 444 511 34,000 98 Climbing FlightAware ADS-B
Fri 06:27:52 AM 43.2537 8.4935 295° West 441 507 34,000  Level FlightAware ADS-B
Fri 06:28:25 AM 43.2812 8.4113 295° West 442 509 34,000  Level FlightAware ADS-B
Fri 06:29:47 AM 43.3512 8.2015 295° West 442 509 34,000  Level FlightAware ADS-B
Fri 06:30:17 AM 43.3760 8.1266 294° West 445 512 34,000  Level FlightAware ADS-B
Fri 06:30:47 AM 43.4022 8.0472 294° West 444 511 34,000  Level FlightAware ADS-B
Fri 06:31:22 AM 43.4323 7.9560 294° West 442 509 34,000  Level FlightAware ADS-B
Fri 06:31:53 AM 43.4576 7.8789 294° West 441 507 34,000  Level FlightAware ADS-B
Fri 06:32:23 AM 43.4818 7.8051 294° West 442 509 34,000  Level FlightAware ADS-B
Fri 06:32:53 AM 43.5083 7.7239 294° West 443 510 34,000  Level FlightAware ADS-B
Fri 06:33:21 AM 43.5316 7.6527 298° West 442 509 34,000  Level FlightAware ADS-B
Fri 06:33:32 AM 43.5422 7.6253 302° West 445 512 34,000  Level FlightAware ADS-B
Fri 06:33:45 AM 43.5569 7.5929 306° West 448 516 34,000  Level FlightAware ADS-B
Fri 06:34:01 AM 43.5767 7.5554 309° West 450 518 34,000  Level FlightAware ADS-B
Fri 06:34:32 AM 43.6160 7.4876 309° West 451 519 34,000  Level FlightAware ADS-B
Fri 06:35:03 AM 43.6563 7.4180 309° West 451 519 34,000  Level FlightAware ADS-B
Fri 06:35:33 AM 43.6958 7.3496 309° West 451 519 34,000  Level FlightAware ADS-B
Fri 06:36:04 AM 43.7361 7.2797 309° West 451 519 34,000  Level FlightAware ADS-B
Fri 06:36:34 AM 43.7752 7.2116 308° West 452 520 34,000  Level FlightAware ADS-B
Fri 06:37:05 AM 43.8148 7.1424 309° West 452 520 34,000  Level FlightAware ADS-B
Fri 06:37:35 AM 43.8538 7.0744 308° West 453 521 34,000  Level FlightAware ADS-B
Fri 06:38:05 AM 43.8932 7.0054 308° West 454 522 34,000  Level FlightAware ADS-B
Fri 06:38:35 AM 43.9329 6.9356 308° West 454 522 34,000  Level FlightAware ADS-B
Fri 06:39:06 AM 43.9730 6.8649 308° West 454 522 34,000  Level FlightAware ADS-B
Fri 06:39:37 AM 44.0125 6.7953 308° West 453 521 34,000  Level FlightAware ADS-B
Fri 06:40:07 AM 44.0514 6.7265 308° West 453 521 34,000  Level FlightAware ADS-B
Fri 06:40:39 AM 44.0930 6.6526 308° West 454 522 34,000  Level FlightAware ADS-B
Fri 06:41:11 AM 44.1343 6.5794 308° West 452 520 34,000  Level FlightAware ADS-B
Fri 06:41:57 AM 44.1937 6.4734 308° West 452 520 34,000  Level FlightAware ADS-B
Fri 06:42:27 AM 44.2323 6.4044 300° West 453 521 34,000 22 Level FlightAware ADS-B
Fri 06:50:15 AM 44.6081 5.3002 300° West  Level FlightAware Approximate
Fri 06:51:15 AM 44.6555 5.1576 300° West  Level FlightAware Approximate
Fri 06:52:15 AM 44.7027 5.0148 300° West  Level FlightAware Approximate
Fri 06:53:15 AM 44.7498 4.8717 300° West  Level FlightAware Approximate
Fri 06:54:15 AM 44.7966 4.7284 299° West  Level FlightAware Approximate
Fri 06:55:15 AM 44.8433 4.5849 299° West  Level FlightAware Approximate
Fri 06:56:15 AM 44.8898 4.4412 299° West  Level FlightAware Approximate
Fri 06:57:15 AM 44.9362 4.2972 299° West  Level FlightAware Approximate
Fri 06:58:15 AM 44.9823 4.1530 299° West  Level FlightAware Approximate
Fri 06:59:15 AM 45.0283 4.0085 299° West  Level FlightAware Approximate
Fri 07:00:15 AM 45.0741 3.8639 299° West  Level FlightAware Approximate
Fri 07:01:15 AM 45.1197 3.7190 299° West  Level FlightAware Approximate
Fri 07:02:15 AM 45.1651 3.5738 299° West  Level FlightAware Approximate
Fri 07:03:15 AM 45.2103 3.4284 299° West  Level FlightAware Approximate
Fri 07:04:15 AM 45.2554 3.2828 299° West  Level FlightAware Approximate
Fri 07:05:15 AM 45.3002 3.1370 299° West  Level FlightAware Approximate
Fri 07:06:15 AM 45.3449 2.9910 299° West  Level FlightAware Approximate
Fri 07:07:15 AM 45.3894 2.8447 299° West  Level FlightAware Approximate
Fri 07:08:15 AM 45.4337 2.6981 298° West  Level FlightAware Approximate
Fri 07:09:15 AM 45.4778 2.5514 298° West  Level FlightAware Approximate
Fri 07:10:15 AM 45.5217 2.4044 298° West  Level FlightAware Approximate
Fri 07:11:15 AM 45.5655 2.2572 298° West  Level FlightAware Approximate
Fri 07:12:15 AM 45.6090 2.1098 298° West  Level FlightAware Approximate
Fri 07:13:15 AM 45.6524 1.9621 298° West  Level FlightAware Approximate
Fri 07:14:15 AM 45.6956 1.8142 298° West  Level FlightAware Approximate
Fri 07:15:15 AM 45.7385 1.6661 298° West  Level FlightAware Approximate
Fri 07:16:15 AM 45.7813 1.5177 298° West  Level FlightAware Approximate
Fri 07:17:15 AM 45.8239 1.3691 298° West  Level FlightAware Approximate
Fri 07:18:15 AM 45.8663 1.2203 298° West  Level FlightAware Approximate
Fri 07:19:15 AM 45.9085 1.0713 298° West  Level FlightAware Approximate
Fri 07:20:15 AM 45.9505 0.9220 298° West  Level FlightAware Approximate
Fri 07:21:15 AM 45.9924 0.7725 298° West  Level FlightAware Approximate
Fri 07:22:15 AM 46.0340 0.6228 298° West  Level FlightAware Approximate
Fri 07:23:15 AM 46.0754 0.4729 297° West  Level FlightAware Approximate
Fri 07:24:15 AM 46.1166 0.3227 297° West  Level FlightAware Approximate
Fri 07:25:15 AM 46.1577 0.1723 297° West  Level FlightAware Approximate
Fri 07:26:15 AM 46.1985 0.0217 297° West  Level FlightAware Approximate
Fri 07:27:15 AM 46.2392 -0.1291 297° West  Level FlightAware Approximate
Fri 07:28:15 AM 46.2796 -0.2802 297° West  Level FlightAware Approximate
Fri 07:29:15 AM 46.3198 -0.4314 297° West  Level FlightAware Approximate
Fri 07:30:15 AM 46.3599 -0.5829 297° West  Level FlightAware Approximate
Fri 07:31:15 AM 46.3997 -0.7347 297° West  Level FlightAware Approximate
Fri 07:32:15 AM 46.4394 -0.8866 297° West  Level FlightAware Approximate
Fri 07:33:15 AM 46.4788 -1.0388 297° West  Level FlightAware Approximate
Fri 07:34:15 AM 46.4718 -1.1826 297° West  Level FlightAware Approximate
Fri 07:35:15 AM 46.5119 -1.3345 297° West  Level FlightAware Approximate
Fri 07:36:15 AM 46.5518 -1.4866 297° West  Level FlightAware Approximate
Fri 07:37:15 AM 46.5915 -1.6389 297° West  Level FlightAware Approximate
Fri 07:38:15 AM 46.6310 -1.7915 297° West  Level FlightAware Approximate
Fri 07:39:15 AM 46.6703 -1.9443 297° West  Level FlightAware Approximate
Fri 07:40:15 AM 46.7094 -2.0973 297° West  Level FlightAware Approximate
Fri 07:41:15 AM 46.7483 -2.2505 297° West  Level FlightAware Approximate
Fri 07:42:15 AM 46.7870 -2.4039 297° West  Level FlightAware Approximate
Fri 07:43:15 AM 46.8255 -2.5576 296° West  Level FlightAware Approximate
Fri 07:44:15 AM 46.8637 -2.7115 296° West  Level FlightAware Approximate
Fri 07:45:15 AM 46.9018 -2.8656 296° West  Level FlightAware Approximate
Fri 07:46:15 AM 46.9397 -3.0199 296° West  Level FlightAware Approximate
Fri 07:47:15 AM 46.9773 -3.1744 296° West  Level FlightAware Approximate
Fri 07:48:15 AM 47.0148 -3.3292 296° West  Level FlightAware Approximate
Fri 07:49:15 AM 47.0520 -3.4842 296° West  Level FlightAware Approximate
Fri 07:50:15 AM 47.0890 -3.6393 296° West  Level FlightAware Approximate
Fri 07:51:15 AM 47.1259 -3.7947 296° West  Level FlightAware Approximate
Fri 07:52:15 AM 47.1625 -3.9504 296° West  Level FlightAware Approximate
Fri 07:53:15 AM 47.1988 -4.1062 296° West  Level FlightAware Approximate
Fri 07:54:15 AM 47.2350 -4.2622 296° West  Level FlightAware Approximate
Fri 07:55:15 AM 47.2710 -4.4185 296° West  Level FlightAware Approximate
Fri 07:56:15 AM 47.3068 -4.5750 296° West  Level FlightAware Approximate
Fri 07:57:15 AM 47.3423 -4.7317 296° West  Level FlightAware Approximate
Fri 07:58:15 AM 47.3776 -4.8885 296° West  Level FlightAware Approximate
Fri 07:59:15 AM 47.4127 -5.0457 296° West  Level FlightAware Approximate
Fri 08:00:15 AM 47.4476 -5.2030 296° West  Level FlightAware Approximate
Fri 08:01:15 AM 47.4823 -5.3605 296° West  Level FlightAware Approximate
Fri 08:02:15 AM 47.5168 -5.5182 296° West  Level FlightAware Approximate
Fri 08:03:15 AM 47.5510 -5.6761 296° West  Level FlightAware Approximate
Fri 08:04:15 AM 47.5851 -5.8343 296° West  Level FlightAware Approximate
Fri 08:05:15 AM 47.6189 -5.9926 296° West  Level FlightAware Approximate
Fri 08:06:15 AM 47.6525 -6.1512 296° West  Level FlightAware Approximate
Fri 08:07:15 AM 47.6859 -6.3099 295° West  Level FlightAware Approximate
Fri 08:08:15 AM 47.7191 -6.4689 295° West  Level FlightAware Approximate
Fri 08:09:15 AM 47.7520 -6.6280 295° West  Level FlightAware Approximate
Fri 08:10:15 AM 47.7847 -6.7874 295° West  Level FlightAware Approximate
Fri 08:11:15 AM 47.8172 -6.9470 295° West  Level FlightAware Approximate
Fri 08:12:15 AM 47.8495 -7.1067 295° West  Level FlightAware Approximate
Fri 08:13:15 AM 47.8815 -7.2667 295° West  Level FlightAware Approximate
Fri 08:14:15 AM 47.9134 -7.4268 295° West  Level FlightAware Approximate
Fri 08:15:15 AM 47.9450 -7.5872 295° West  Level FlightAware Approximate
Fri 08:16:15 AM 47.9764 -7.7477 295° West  Level FlightAware Approximate
Fri 08:17:15 AM 48.0076 -7.9085 295° West  Level FlightAware Approximate
Fri 08:18:15 AM 48.0306 -8.0720 295° West  Level FlightAware Approximate
Fri 08:19:15 AM 48.0614 -8.2330 295° West  Level FlightAware Approximate
Fri 08:20:15 AM 48.0919 -8.3943 295° West  Level FlightAware Approximate
Fri 08:21:15 AM 48.1223 -8.5557 295° West  Level FlightAware Approximate
Fri 08:22:15 AM 48.1524 -8.7174 296° West  Level FlightAware Approximate
Fri 08:23:15 AM 48.1823 -8.8792 296° West  Level FlightAware Approximate
Fri 08:24:15 AM 48.2119 -9.0412 296° West  Level FlightAware Approximate
Fri 08:25:15 AM 48.2414 -9.2034 296° West  Level FlightAware Approximate
Fri 08:26:15 AM 48.2706 -9.3658 296° West  Level FlightAware Approximate
Fri 08:27:15 AM 48.2995 -9.5284 296° West  Level FlightAware Approximate
Fri 08:28:15 AM 48.3283 -9.6912 296° West  Level FlightAware Approximate
Fri 08:29:15 AM 48.3568 -9.8541 296° West  Level FlightAware Approximate
Fri 08:30:15 AM 48.3851 -10.0173 296° West  Level FlightAware Approximate
Fri 08:31:15 AM 48.4131 -10.1806 296° West  Level FlightAware Approximate
Fri 08:32:15 AM 48.4409 -10.3441 296° West  Level FlightAware Approximate
Fri 08:33:15 AM 48.4685 -10.5077 296° West  Level FlightAware Approximate
Fri 08:34:15 AM 48.4959 -10.6716 296° West  Level FlightAware Approximate
Fri 08:35:15 AM 48.5230 -10.8356 296° West  Level FlightAware Approximate
Fri 08:36:15 AM 48.5499 -10.9998 296° West  Level FlightAware Approximate
Fri 08:37:15 AM 48.5799 -11.1849 296° West  Level FlightAware Approximate
Fri 08:38:15 AM 48.6096 -11.3702 296° West  Level FlightAware Approximate
Fri 08:39:15 AM 48.6390 -11.5557 297° West  Level FlightAware Approximate
Fri 08:40:15 AM 48.6681 -11.7414 297° West  Level FlightAware Approximate
Fri 08:41:15 AM 48.6969 -11.9274 297° West  Level FlightAware Approximate
Fri 08:42:15 AM 48.7254 -12.1135 297° West  Level FlightAware Approximate
Fri 08:43:15 AM 48.7537 -12.2999 297° West  Level FlightAware Approximate
Fri 08:44:15 AM 48.7816 -12.4865 297° West  Level FlightAware Approximate
Fri 08:45:15 AM 48.8092 -12.6733 298° West  Level FlightAware Approximate
Fri 08:46:15 AM 48.8365 -12.8603 298° West  Level FlightAware Approximate
Fri 08:47:15 AM 48.8635 -13.0475 298° West  Level FlightAware Approximate
Fri 08:48:15 AM 48.8902 -13.2349 298° West  Level FlightAware Approximate
Fri 08:49:15 AM 48.9220 -13.4205 299° West  Level FlightAware Approximate
Fri 08:50:15 AM 48.9479 -13.6083 299° West  Level FlightAware Approximate
Fri 08:51:15 AM 48.9735 -13.7964 299° West  Level FlightAware Approximate
Fri 08:52:15 AM 48.9989 -13.9846 300° West  Level FlightAware Approximate
Fri 08:53:15 AM 49.0239 -14.1731 300° West  Level FlightAware Approximate
Fri 08:54:15 AM 49.0486 -14.3617 300° West  Level FlightAware Approximate
Fri 08:55:15 AM 49.0730 -14.5505 301° West  Level FlightAware Approximate
Fri 08:56:15 AM 49.0971 -14.7395 301° West  Level FlightAware Approximate
Fri 08:57:15 AM 49.1209 -14.9287 302° West  Level FlightAware Approximate
Fri 08:58:15 AM 49.1488 -15.1162 302° West  Level FlightAware Approximate
Fri 08:59:15 AM 49.1721 -15.3057 303° West  Level FlightAware Approximate
Fri 09:00:00 AM 51.0000 -20.0000 283° West 527 606 37,000  Level ETMS Enhanced Traffic Management System
Fri 09:00:15 AM 49.1950 -15.4954 300° West  Level FlightAware Approximate
Fri 09:07:15 AM 51.2277 -21.6527 282° West 527 606 37,000  Level FlightAware Transoceanic
Fri 09:08:15 AM 51.2573 -21.8819 282° West 527 606 37,000  Level FlightAware Transoceanic
Fri 09:09:15 AM 51.2864 -22.1114 281° West 527 606 37,000  Level FlightAware Transoceanic
Fri 09:10:15 AM 51.3150 -22.3412 281° West 527 606 37,000  Level FlightAware Transoceanic
Fri 09:11:15 AM 51.3433 -22.5712 281° West 527 606 37,000  Level FlightAware Transoceanic
Fri 09:12:15 AM 51.3710 -22.8016 281° West 527 606 37,000  Level FlightAware Transoceanic
Fri 09:13:15 AM 51.3984 -23.0322 281° West 527 606 37,000  Level FlightAware Transoceanic
Fri 09:14:15 AM 51.4252 -23.2631 280° West 527 606 37,000  Level FlightAware Transoceanic
Fri 09:15:15 AM 51.4516 -23.4943 280° West 527 606 37,000  Level FlightAware Transoceanic
Fri 09:16:15 AM 51.4776 -23.7257 280° West 527 606 37,000  Level FlightAware Transoceanic
Fri 09:17:15 AM 51.5031 -23.9575 280° West 527 606 37,000  Level FlightAware Transoceanic
Fri 09:18:15 AM 51.5281 -24.1894 280° West 527 606 37,000  Level FlightAware Transoceanic
Fri 09:19:15 AM 51.5527 -24.4216 280° West 527 606 37,000  Level FlightAware Transoceanic
Fri 09:20:15 AM 51.5769 -24.6541 279° West 527 606 37,000  Level FlightAware Transoceanic
Fri 09:21:15 AM 51.6005 -24.8868 279° West 527 606 37,000  Level FlightAware Transoceanic
Fri 09:22:15 AM 51.6237 -25.1197 279° West 527 606 37,000  Level FlightAware Transoceanic
Fri 09:23:15 AM 51.6465 -25.3529 279° West 527 606 37,000  Level FlightAware Transoceanic
Fri 09:24:15 AM 51.6688 -25.5863 279° West 527 606 37,000  Level FlightAware Transoceanic
Fri 09:25:15 AM 51.6906 -25.8200 278° West 527 606 37,000  Level FlightAware Transoceanic
Fri 09:26:15 AM 51.7119 -26.0538 278° West 527 606 37,000  Level FlightAware Transoceanic
Fri 09:27:15 AM 51.7328 -26.2879 278° West 527 606 37,000  Level FlightAware Transoceanic
Fri 09:28:15 AM 51.7533 -26.5222 278° West 527 606 37,000  Level FlightAware Transoceanic
Fri 09:29:15 AM 51.7732 -26.7567 278° West 527 606 37,000  Level FlightAware Transoceanic
Fri 09:30:15 AM 51.7927 -26.9914 278° West 527 606 37,000  Level FlightAware Transoceanic
Fri 09:31:15 AM 51.8117 -27.2264 277° West 527 606 37,000  Level FlightAware Transoceanic
Fri 09:32:15 AM 51.8303 -27.4615 277° West 527 606 37,000  Level FlightAware Transoceanic
Fri 09:33:15 AM 51.8484 -27.6968 277° West 527 606 37,000  Level FlightAware Transoceanic
Fri 09:34:15 AM 51.8660 -27.9322 277° West 527 606 37,000  Level FlightAware Transoceanic
Fri 09:35:15 AM 51.8831 -28.1679 277° West 527 606 37,000  Level FlightAware Transoceanic
Fri 09:36:15 AM 51.8998 -28.4038 276° West 527 606 37,000  Level FlightAware Transoceanic
Fri 09:37:15 AM 51.9160 -28.6398 276° West 527 606 37,000  Level FlightAware Transoceanic
Fri 09:38:15 AM 51.9317 -28.8760 276° West 527 606 37,000  Level FlightAware Transoceanic
Fri 09:39:15 AM 51.9470 -29.1123 276° West 527 606 37,000  Level FlightAware Transoceanic
Fri 09:40:15 AM 51.9618 -29.3488 276° West 527 606 37,000  Level FlightAware Transoceanic
Fri 09:41:15 AM 51.9761 -29.5855 276° West 527 606 37,000  Level FlightAware Transoceanic
Fri 09:42:15 AM 51.9899 -29.8223 278° West 527 606 37,000  Level FlightAware Transoceanic
Fri 09:43:15 AM 51.9552 -29.9951 278° West  Level FlightAware Approximate
Fri 09:44:15 AM 51.9201 -30.1677 278° West  Level FlightAware Approximate
Fri 09:45:15 AM 51.8848 -30.3399 278° West  Level FlightAware Approximate
Fri 09:46:15 AM 51.8493 -30.5119 278° West  Level FlightAware Approximate
Fri 09:47:15 AM 51.8135 -30.6836 278° West  Level FlightAware Approximate
Fri 09:48:15 AM 51.7775 -30.8551 278° West  Level FlightAware Approximate
Fri 09:49:15 AM 51.7412 -31.0263 278° West  Level FlightAware Approximate
Fri 09:50:15 AM 51.7047 -31.1972 278° West  Level FlightAware Approximate
Fri 09:51:15 AM 51.6679 -31.3678 278° West  Level FlightAware Approximate
Fri 09:52:15 AM 51.6309 -31.5382 278° West  Level FlightAware Approximate
Fri 09:53:15 AM 51.5936 -31.7083 279° West  Level FlightAware Approximate
Fri 09:54:15 AM 51.5561 -31.8780 279° West  Level FlightAware Approximate
Fri 09:55:15 AM 51.5183 -32.0476 279° West  Level FlightAware Approximate
Fri 09:56:15 AM 51.4803 -32.2168 279° West  Level FlightAware Approximate
Fri 09:57:15 AM 51.4420 -32.3857 279° West  Level FlightAware Approximate
Fri 09:58:15 AM 51.4035 -32.5544 279° West  Level FlightAware Approximate
Fri 09:59:15 AM 51.3648 -32.7228 279° West  Level FlightAware Approximate
Fri 10:00:15 AM 51.3258 -32.8909 280° West  Level FlightAware Approximate
Fri 10:01:15 AM 51.2866 -33.0587 280° West  Level FlightAware Approximate
Fri 10:02:15 AM 51.2676 -33.2351 280° West  Level FlightAware Approximate
Fri 10:03:15 AM 51.2483 -33.4114 280° West  Level FlightAware Approximate
Fri 10:04:15 AM 51.2287 -33.5875 280° West  Level FlightAware Approximate
Fri 10:05:15 AM 51.2089 -33.7635 280° West  Level FlightAware Approximate
Fri 10:06:15 AM 51.1888 -33.9393 280° West  Level FlightAware Approximate
Fri 10:07:15 AM 51.1684 -34.1150 280° West  Level FlightAware Approximate
Fri 10:08:15 AM 51.1478 -34.2905 280° West  Level FlightAware Approximate
Fri 10:09:15 AM 51.1269 -34.4659 280° West  Level FlightAware Approximate
Fri 10:10:15 AM 51.1058 -34.6411 280° West  Level FlightAware Approximate
Fri 10:11:15 AM 51.0844 -34.8161 280° West  Level FlightAware Approximate
Fri 10:12:15 AM 51.0627 -34.9910 281° West  Level FlightAware Approximate
Fri 10:13:15 AM 51.0408 -35.1657 281° West  Level FlightAware Approximate
Fri 10:14:15 AM 51.0186 -35.3403 281° West  Level FlightAware Approximate
Fri 10:15:15 AM 50.9962 -35.5146 281° West  Level FlightAware Approximate
Fri 10:16:15 AM 50.9734 -35.6889 281° West  Level FlightAware Approximate
Fri 10:17:15 AM 50.9505 -35.8629 281° West  Level FlightAware Approximate
Fri 10:18:15 AM 50.9273 -36.0368 281° West  Level FlightAware Approximate
Fri 10:19:15 AM 50.9038 -36.2105 281° West  Level FlightAware Approximate
Fri 10:20:15 AM 50.8800 -36.3840 282° West  Level FlightAware Approximate
Fri 10:21:15 AM 50.8560 -36.5573 282° West  Level FlightAware Approximate
Fri 10:22:15 AM 50.8318 -36.7305 282° West  Level FlightAware Approximate
Fri 10:23:15 AM 50.8073 -36.9035 282° West  Level FlightAware Approximate
Fri 10:24:15 AM 50.7825 -37.0763 282° West  Level FlightAware Approximate
Fri 10:25:15 AM 50.7575 -37.2489 282° West  Level FlightAware Approximate
Fri 10:26:15 AM 50.7322 -37.4213 283° West  Level FlightAware Approximate
Fri 10:27:15 AM 50.7067 -37.5935 283° West  Level FlightAware Approximate
Fri 10:28:15 AM 50.6777 -37.7873 283° West  Level FlightAware Approximate
Fri 10:29:15 AM 50.6483 -37.9807 283° West  Level FlightAware Approximate
Fri 10:30:15 AM 50.6186 -38.1740 284° West  Level FlightAware Approximate
Fri 10:31:15 AM 50.5886 -38.3669 284° West  Level FlightAware Approximate
Fri 10:32:15 AM 50.5583 -38.5597 284° West  Level FlightAware Approximate
Fri 10:33:15 AM 50.5276 -38.7522 284° West  Level FlightAware Approximate
Fri 10:34:15 AM 50.4967 -38.9444 285° West  Level FlightAware Approximate
Fri 10:35:15 AM 50.4654 -39.1364 285° West  Level FlightAware Approximate
Fri 10:36:15 AM 50.4338 -39.3281 285° West  Level FlightAware Approximate
Fri 10:37:15 AM 50.4019 -39.5196 286° West  Level FlightAware Approximate
Fri 10:38:15 AM 50.3697 -39.7108 286° West  Level FlightAware Approximate
Fri 10:39:15 AM 50.3371 -39.9017 286° West  Level FlightAware Approximate
Fri 10:40:15 AM 50.3043 -40.0924 287° West  Level FlightAware Approximate
Fri 10:41:15 AM 50.2711 -40.2829 287° West  Level FlightAware Approximate
Fri 10:42:15 AM 50.2377 -40.4730 288° West  Level FlightAware Approximate
Fri 10:43:15 AM 50.2102 -40.6654 288° West  Level FlightAware Approximate
Fri 10:44:15 AM 50.1824 -40.8576 288° West  Level FlightAware Approximate
Fri 10:45:15 AM 50.1543 -41.0495 289° West  Level FlightAware Approximate
Fri 10:46:15 AM 50.1258 -41.2412 289° West  Level FlightAware Approximate
Fri 10:47:15 AM 50.0971 -41.4326 290° West  Level FlightAware Approximate
Fri 10:48:15 AM 50.0680 -41.6239 290° West  Level FlightAware Approximate
Fri 10:49:15 AM 50.0387 -41.8149 291° West  Level FlightAware Approximate
Fri 10:50:15 AM 50.0090 -42.0056 291° West  Level FlightAware Approximate
Fri 10:51:15 AM 49.9790 -42.1962 292° West  Level FlightAware Approximate
Fri 10:52:15 AM 49.9486 -42.3865 293° West  Level FlightAware Approximate
Fri 10:53:15 AM 49.9180 -42.5765 293° West  Level FlightAware Approximate
Fri 10:54:15 AM 49.8871 -42.7663 294° West  Level FlightAware Approximate
Fri 10:55:15 AM 49.8558 -42.9559 295° West  Level FlightAware Approximate
Fri 10:56:15 AM 49.8243 -43.1452 295° West  Level FlightAware Approximate
Fri 10:57:15 AM 49.7924 -43.3343 296° West  Level FlightAware Approximate
Fri 10:58:15 AM 49.7602 -43.5231 297° West  Level FlightAware Approximate
Fri 10:59:15 AM 49.7278 -43.7117 298° West  Level FlightAware Approximate
Fri 11:00:15 AM 49.6950 -43.9000 299° West  Level FlightAware Approximate
Fri 11:01:15 AM 49.6619 -44.0880 300° West  Level FlightAware Approximate
Fri 11:02:15 AM 49.6285 -44.2758 300° West  Level FlightAware Approximate
Fri 11:03:15 AM 49.5948 -44.4634 301° West  Level FlightAware Approximate
Fri 11:04:15 AM 49.5608 -44.6507 302° West  Level FlightAware Approximate
Fri 11:05:15 AM 49.5265 -44.8377 304° West  Level FlightAware Approximate
Fri 11:06:15 AM 49.4919 -45.0244 305° West  Level FlightAware Approximate
Fri 11:07:15 AM 49.4570 -45.2109 306° West  Level FlightAware Approximate
Fri 11:08:15 AM 49.4218 -45.3971 307° West  Level FlightAware Approximate
Fri 11:09:15 AM 49.3863 -45.5831 308° West  Level FlightAware Approximate
Fri 11:10:15 AM 49.3505 -45.7688 310° West  Level FlightAware Approximate
Fri 11:11:15 AM 49.3144 -45.9542 311° West  Level FlightAware Approximate
Fri 11:12:15 AM 49.2780 -46.1394 312° West  Level FlightAware Approximate
Fri 11:13:15 AM 49.2414 -46.3242 314° West  Level FlightAware Approximate
Fri 11:14:15 AM 49.2044 -46.5088 315° West  Level FlightAware Approximate
Fri 11:15:15 AM 49.1671 -46.6932 317° Northwest  Level FlightAware Approximate
Fri 11:16:15 AM 49.1296 -46.8772 319° Northwest  Level FlightAware Approximate
Fri 11:17:15 AM 49.0917 -47.0610 320° Northwest  Level FlightAware Approximate
Fri 11:18:15 AM 49.0535 -47.2444 322° Northwest  Level FlightAware Approximate
Fri 11:19:15 AM 49.0151 -47.4276 324° Northwest  Level FlightAware Approximate
Fri 11:20:15 AM 48.9764 -47.6105 326° Northwest  Level FlightAware Approximate
Fri 11:21:15 AM 48.9374 -47.7932 328° Northwest  Level FlightAware Approximate
Fri 11:22:24 AM 51.8167 -50.7833 255° West 460 529 37,000  Level Gander Center
Fri 11:23:24 AM 51.7833 -50.9833 246° West 460 529 37,000  Level Gander Center
Fri 11:24:24 AM 51.7333 -51.1667 248° West 460 529 37,000  Level Gander Center
Fri 11:25:24 AM 51.6833 -51.3667 248° West 450 518 37,000  Level Gander Center
Fri 11:26:24 AM 51.6333 -51.5667 248° West 460 529 37,000  Level Gander Center
Fri 11:27:24 AM 51.5833 -51.7667 244° Southwest 460 529 37,000  Level Gander Center
Fri 11:28:24 AM 51.5333 -51.9333 248° West 470 541 37,000  Level Gander Center
Fri 11:29:24 AM 51.4833 -52.1333 255° West 460 529 37,000  Level Gander Center
Fri 11:30:24 AM 51.4500 -52.3333 237° Southwest 460 529 37,000  Level Gander Center
Fri 11:31:24 AM 51.3833 -52.5000 236° Southwest 460 529 37,000  Level Gander Center
Fri 11:33:21 AM 51.2333 -52.8500 244° Southwest 460 529 37,000  Level Moncton Center
Fri 11:34:21 AM 51.1833 -53.0167 240° Southwest 460 529 37,000  Level Moncton Center
Fri 11:35:21 AM 51.1167 -53.2000 238° Southwest 460 529 37,000  Level Moncton Center
Fri 11:36:21 AM 51.0500 -53.3667 240° Southwest 460 529 37,000  Level Moncton Center
Fri 11:37:21 AM 50.9833 -53.5500 240° Southwest 470 541 37,000  Level Moncton Center
Fri 11:38:21 AM 50.9167 -53.7333 238° Southwest 460 529 37,000  Level Moncton Center
Fri 11:39:21 AM 50.8500 -53.9000 240° Southwest 460 529 37,000  Level Moncton Center
Fri 11:40:21 AM 50.7833 -54.0833 238° Southwest 470 541 37,000  Level Moncton Center
Fri 11:41:21 AM 50.7167 -54.2500 245° Southwest 470 541 37,000  Level Moncton Center
Fri 11:42:21 AM 50.6667 -54.4167 234° Southwest 470 541 37,000  Level Moncton Center
Fri 11:43:21 AM 50.5833 -54.6000 238° Southwest 470 541 37,000  Level Moncton Center
Fri 11:44:21 AM 50.5167 -54.7667 240° Southwest 470 541 37,000  Level Moncton Center
Fri 11:45:21 AM 50.4500 -54.9500 238° Southwest 470 541 37,000 -200 Level Moncton Center
Fri 11:46:21 AM 50.3833 -55.1167 238° Southwest 470 541 36,600 -500 Descending Moncton Center
Fri 11:47:21 AM 50.3167 -55.2833 235° Southwest 470 541 36,000 -300 Descending Moncton Center
Fri 11:48:21 AM 50.2333 -55.4667 238° Southwest 460 529 36,000  Level Moncton Center
Fri 11:49:21 AM 50.1667 -55.6333 238° Southwest 470 541 36,000  Level Moncton Center
Fri 11:50:21 AM 50.1000 -55.8000 238° Southwest 470 541 36,000  Level Moncton Center
Fri 11:51:21 AM 50.0333 -55.9667 238° Southwest 470 541 36,000  Level Moncton Center
Fri 11:52:21 AM 49.9667 -56.1333 232° Southwest 460 529 36,000  Level Moncton Center
Fri 11:53:21 AM 49.8833 -56.3000 245° Southwest 470 541 36,000  Level Moncton Center
Fri 11:54:21 AM 49.8333 -56.4667 232° Southwest 460 529 36,000  Level Moncton Center
Fri 11:55:21 AM 49.7500 -56.6333 238° Southwest 460 529 36,000  Level Moncton Center
Fri 11:56:21 AM 49.6833 -56.8000 232° Southwest 460 529 36,000  Level Moncton Center
Fri 11:57:21 AM 49.6000 -56.9667 238° Southwest 460 529 36,000  Level Moncton Center
Fri 11:58:21 AM 49.5333 -57.1333 245° Southwest 460 529 36,000  Level Moncton Center
Fri 11:59:21 AM 49.4833 -57.3000 227° Southwest 460 529 36,000  Level Moncton Center
Fri 12:00:21 PM 49.3833 -57.4667 245° Southwest 460 529 36,000  Level Moncton Center
Fri 12:01:21 PM 49.3333 -57.6333 233° Southwest 460 529 36,000  Level Moncton Center
Fri 12:02:21 PM 49.2500 -57.8000 239° Southwest 460 529 36,000  Level Moncton Center
Fri 12:03:21 PM 49.1833 -57.9667 233° Southwest 460 529 36,000  Level Moncton Center
Fri 12:04:21 PM 49.1000 -58.1333 236° Southwest 460 529 36,000  Level Moncton Center
Fri 12:05:21 PM 49.0333 -58.2833 236° Southwest 460 529 36,000  Level Moncton Center
Fri 12:06:21 PM 48.9667 -58.4333 236° Southwest 450 518 36,000  Level Moncton Center
Fri 12:07:21 PM 48.9000 -58.5833 235° Southwest 460 529 36,000  Level Moncton Center
Fri 12:08:21 PM 48.8167 -58.7667 230° Southwest 460 529 36,000  Level Moncton Center
Fri 12:09:21 PM 48.7333 -58.9167 236° Southwest 450 518 36,000  Level Moncton Center
Fri 12:10:21 PM 48.6667 -59.0667 233° Southwest 450 518 36,000  Level Moncton Center
Fri 12:11:21 PM 48.5833 -59.2333 243° Southwest 460 529 36,000  Level Moncton Center
Fri 12:12:21 PM 48.5333 -59.3833 233° Southwest 460 529 36,000  Level Moncton Center
Fri 12:13:21 PM 48.4500 -59.5500 227° Southwest 450 518 36,000  Level Moncton Center
Fri 12:14:21 PM 48.3667 -59.6833 241° Southwest 450 518 36,000  Level Moncton Center
Fri 12:15:21 PM 48.3000 -59.8667 233° Southwest 450 518 36,000  Level Moncton Center
Fri 12:16:21 PM 48.2333 -60.0000 230° Southwest 450 518 36,000  Level Moncton Center
Fri 12:17:21 PM 48.1500 -60.1500 239° Southwest 450 518 36,000  Level Moncton Center
Fri 12:18:21 PM 48.0833 -60.3167 230° Southwest 450 518 36,000  Level Moncton Center
Fri 12:19:21 PM 48.0000 -60.4667 233° Southwest 450 518 36,000  Level Moncton Center
Fri 12:20:21 PM 47.9333 -60.6000 237° Southwest 450 518 36,000  Level Moncton Center
Fri 12:21:21 PM 47.8667 -60.7500 233° Southwest 450 518 36,000  Level Moncton Center
Fri 12:22:21 PM 47.7833 -60.9167 237° Southwest 450 518 36,000  Level Moncton Center
Fri 12:23:21 PM 47.7167 -61.0667 231° Southwest 450 518 36,000  Level Moncton Center
Fri 12:24:21 PM 47.6333 -61.2167 233° Southwest 450 518 36,000  Level Moncton Center
Fri 12:25:21 PM 47.5667 -61.3500 234° Southwest 450 518 36,000  Level Moncton Center
Fri 12:26:21 PM 47.4833 -61.5167 234° Southwest 450 518 36,000  Level Moncton Center
Fri 12:27:21 PM 47.4167 -61.6500 231° Southwest 450 518 36,000  Level Moncton Center
Fri 12:28:21 PM 47.3333 -61.8000 231° Southwest 440 506 36,000  Level Moncton Center
Fri 12:29:21 PM 47.2500 -61.9500 234° Southwest 440 506 36,000  Level Moncton Center
Fri 12:30:21 PM 47.1833 -62.0833 237° Southwest 440 506 36,000  Level Moncton Center
Fri 12:31:21 PM 47.1167 -62.2333 237° Southwest 440 506 36,000  Level Moncton Center
Fri 12:32:21 PM 47.0500 -62.3833 228° Southwest 440 506 36,000  Level Moncton Center
Fri 12:33:21 PM 46.9667 -62.5167 228° Southwest 440 506 36,000  Level Moncton Center
Fri 12:34:21 PM 46.8833 -62.6500 237° Southwest 440 506 36,000  Level Moncton Center
Fri 12:35:21 PM 46.8167 -62.8000 228° Southwest 440 506 36,000  Level Moncton Center
Fri 12:36:21 PM 46.7333 -62.9333 237° Southwest 440 506 36,000  Level Moncton Center
Fri 12:37:21 PM 46.6667 -63.0833 224° Southwest 440 506 36,000  Level Moncton Center
Fri 12:38:21 PM 46.5833 -63.2000 231° Southwest 440 506 36,000  Level Moncton Center
Fri 12:39:21 PM 46.5000 -63.3500 237° Southwest 440 506 36,000  Level Moncton Center
Fri 12:40:21 PM 46.4333 -63.5000 237° Southwest 440 506 36,000  Level Moncton Center
Fri 12:41:21 PM 46.3667 -63.6500 230° Southwest 440 506 36,000  Level Moncton Center
Fri 12:42:21 PM 46.3000 -63.7667 231° Southwest 440 506 36,000  Level Moncton Center
Fri 12:43:21 PM 46.2167 -63.9167 237° Southwest 440 506 36,000  Level Moncton Center
Fri 12:44:21 PM 46.1500 -64.0667 224° Southwest 440 506 36,000  Level Moncton Center
Fri 12:45:21 PM 46.0667 -64.1833 228° Southwest 440 506 36,000  Level Moncton Center
Fri 12:46:21 PM 45.9833 -64.3167 234° Southwest 440 506 36,000  Level Moncton Center
Fri 12:47:21 PM 45.9167 -64.4500 228° Southwest 440 506 36,000  Level Moncton Center
Fri 12:48:21 PM 45.8333 -64.5833 232° Southwest 440 506 36,000  Level Moncton Center
Fri 12:49:21 PM 45.7500 -64.7333 224° Southwest 430 495 36,000  Level Moncton Center
Fri 12:50:21 PM 45.6667 -64.8500 232° Southwest 430 495 36,000  Level Moncton Center
Fri 12:51:21 PM 45.5833 -65.0000 235° Southwest 430 495 36,000  Level Moncton Center
Fri 12:52:21 PM 45.5167 -65.1333 231° Southwest 430 495 36,000  Level Moncton Center
Fri 12:53:21 PM 45.4500 -65.2500 232° Southwest 430 495 36,000  Level Moncton Center
Fri 12:54:21 PM 45.3667 -65.4000 225° Southwest 430 495 36,000  Level Moncton Center
Fri 12:55:21 PM 45.2833 -65.5167 235° Southwest 430 495 36,000  Level Moncton Center
Fri 12:56:21 PM 45.2167 -65.6500 225° Southwest 430 495 36,000  Level Moncton Center
Fri 12:57:21 PM 45.1333 -65.7667 238° Southwest 420 483 36,000  Level Moncton Center
Fri 12:58:21 PM 45.0667 -65.9167 225° Southwest 430 495 36,000  Level Moncton Center
Fri 12:59:21 PM 44.9833 -66.0333 235° Southwest 430 495 36,000  Level Moncton Center
Fri 01:00:21 PM 44.9167 -66.1667 225° Southwest 430 495 36,000  Level Moncton Center
Fri 01:01:21 PM 44.8333 -66.2833 229° Southwest 430 495 36,000  Level Moncton Center
Fri 01:02:21 PM 44.7500 -66.4167 238° Southwest 430 495 36,000  Level Moncton Center
Fri 01:03:21 PM 44.6833 -66.5667 225° Southwest 420 483 36,000  Level Moncton Center
Fri 01:04:21 PM 44.6000 -66.6833 235° Southwest 420 483 36,000  Level Moncton Center
Fri 01:05:21 PM 44.5333 -66.8167 225° Southwest 430 495 36,000  Level Moncton Center
Fri 01:06:21 PM 44.4500 -66.9333 221° Southwest 420 483 36,000  Level Moncton Center
Fri 01:07:21 PM 44.3667 -67.0333 225° Southwest 420 483 36,000  Level Moncton Center
Fri 01:08:21 PM 44.2833 -67.1500 225° Southwest 420 483 36,000  Level Moncton Center
Fri 01:09:21 PM 44.2000 -67.2667 225° Southwest 420 483 36,000  Level Moncton Center
Fri 01:10:21 PM 44.1167 -67.3833 221° Southwest 420 483 36,000  Level Moncton Center
Fri 01:11:21 PM 44.0333 -67.4833 220° Southwest 420 483 36,000  Level Moncton Center
Fri 01:12:21 PM 43.9333 -67.6000 225° Southwest 420 483 36,000  Level Moncton Center
Fri 01:13:21 PM 43.8500 -67.7167 221° Southwest 420 483 36,000  Level Moncton Center
Fri 01:14:21 PM 43.7667 -67.8167 232° Southwest 420 483 36,000  Level Moncton Center
Fri 01:15:21 PM 43.7000 -67.9333 220° Southwest 410 472 36,000  Level Moncton Center
Fri 01:16:21 PM 43.6000 -68.0500 221° Southwest 410 472 36,000  Level Moncton Center
Fri 01:17:21 PM 43.5167 -68.1500 232° Southwest 410 472 36,000  Level Moncton Center
Fri 01:18:21 PM 43.4500 -68.2667 221° Southwest 410 472 36,000  Level Moncton Center
Fri 01:19:21 PM 43.3667 -68.3667 226° Southwest 410 472 36,000  Level Moncton Center
Fri 01:20:21 PM 43.2833 -68.4833 211° Southwest 410 472 36,000  Level Moncton Center
Fri 01:21:21 PM 43.1833 -68.5667 226° Southwest 410 472 36,000  Level Moncton Center
Fri 01:22:21 PM 43.1000 -68.6833 221° Southwest 410 472 36,000  Level Moncton Center
Fri 01:23:21 PM 43.0167 -68.7833 226° Southwest 420 483 36,000  Level Moncton Center
Fri 01:24:21 PM 42.9333 -68.9000 221° Southwest 420 483 36,000  Level Moncton Center
Fri 01:25:21 PM 42.8500 -69.0000 221° Southwest 420 483 36,000  Level Moncton Center
Fri 01:26:21 PM 42.7667 -69.1000 226° Southwest 420 483 36,000  Level Moncton Center
Fri 01:27:21 PM 42.6833 -69.2167 216° Southwest 420 483 36,000  Level Moncton Center
Fri 01:28:21 PM 42.5833 -69.3167 226° Southwest 420 483 36,000  Level Moncton Center
Fri 01:29:21 PM 42.5000 -69.4333 222° Southwest 420 483 36,000  Level Moncton Center
Fri 01:30:21 PM 42.4167 -69.5333 222° Southwest 410 472 36,000  Level Moncton Center
Fri 01:31:21 PM 42.3333 -69.6333 226° Southwest 410 472 36,000  Level Moncton Center
Fri 01:32:21 PM 42.2500 -69.7500 222° Southwest 410 472 36,000  Level Moncton Center
Fri 01:33:21 PM 42.1667 -69.8500 217° Southwest 410 472 36,000  Level Moncton Center
Fri 01:34:21 PM 42.0667 -69.9500 222° Southwest 420 483 36,000  Level Moncton Center
Fri 01:35:21 PM 41.9833 -70.0500 233° Southwest 410 472 36,000  Level Moncton Center
Fri 01:36:21 PM 41.9167 -70.1667 226° Southwest 410 472 36,000  Level Moncton Center
Fri 01:37:21 PM 41.8333 -70.2833 222° Southwest 410 472 36,000  Level Moncton Center
Fri 01:38:21 PM 41.7500 -70.3833 236° Southwest 420 483 36,000  Level Moncton Center
Fri 01:39:21 PM 41.6833 -70.5167 222° Southwest 420 483 36,000  Level Moncton Center
Fri 01:40:21 PM 41.6000 -70.6167 233° Southwest 410 472 36,000  Level Moncton Center
Fri 01:41:21 PM 41.5333 -70.7333 221° Southwest 410 472 36,000  Level Moncton Center
Fri 01:42:21 PM 41.4333 -70.8500 231° Southwest 420 483 36,000  Level Moncton Center
Fri 01:43:21 PM 41.3833 -70.9333 233° Southwest 420 483 36,000 -414 Level Moncton Center
Fri 01:44:46 PM 41.2717 -71.1336 243° Southwest 424 488 35,000 -786 Descending Boston Center
Fri 01:45:46 PM 41.2189 -71.2700 250° West 424 488 34,100 -950 Descending Boston Center
Fri 01:46:46 PM 41.1786 -71.4142 250° West 414 476 33,100 -950 Descending Boston Center
Fri 01:47:46 PM 41.1403 -71.5525 232° Southwest 414 476 32,200 -850 Descending Boston Center
Fri 01:48:46 PM 41.0806 -71.6553 231° Southwest 400 460 31,400 -900 Descending Boston Center
Fri 01:49:46 PM 41.0064 -71.7744 234° Southwest 413 475 30,400 -1,050 Descending Boston Center
Fri 01:50:46 PM 40.9319 -71.9100 224° Southwest 419 482 29,300 -950 Descending Boston Center
Fri 01:51:46 PM 40.8594 -72.0011 232° Southwest 414 476 28,500 -900 Descending Boston Center
Fri 01:52:46 PM 40.7889 -72.1194 232° Southwest 414 476 27,500 -1,050 Descending Boston Center
Fri 01:53:46 PM 40.7225 -72.2319 230° Southwest 404 465 26,400 -1,024 Descending Boston Center
Fri 01:56:11 PM 40.5619 -72.4814 232° Southwest 370 426 24,000 -990 Descending New York Center
Fri 01:57:12 PM 40.4936 -72.5969 230° Southwest 370 426 23,000 -984 Descending New York Center
Fri 01:58:13 PM 40.4272 -72.7014 231° Southwest 375 432 22,000 -942 Descending New York Center
Fri 01:59:13 PM 40.3608 -72.8086 232° Southwest 375 432 21,100 -843 Descending New York Center
Fri 02:00:14 PM 40.2964 -72.9156 230° Southwest 375 432 20,300 -559 Descending New York Center
Fri 02:01:11 PM 40.2256 -73.0272 231° Southwest 385 443 20,000 -154 Descending New York Center
Fri 02:02:11 PM 40.1589 -73.1364 230° Southwest 390 449 20,000  Level New York Center
Fri 02:03:12 PM 40.0900 -73.2425 232° Southwest 390 449 20,000  Level New York Center
Fri 02:04:12 PM 40.0250 -73.3514 230° Southwest 390 449 20,000 -50 Level New York Center
Fri 02:05:13 PM 39.9644 -73.4467 231° Southwest 390 449 19,900 -545 Descending New York Center
Fri 02:06:13 PM 39.9019 -73.5472 230° Southwest 378 435 18,900 -1,525 Descending New York Center
Fri 02:07:11 PM 39.8411 -73.6419 231° Southwest 365 420 16,900 -1,920 Descending New York Center
Fri 02:08:18 PM 39.7681 -73.7586 231° Southwest 351 404 14,900 -1,313 Descending Washington Center
Fri 02:09:19 PM 39.7111 -73.8489 231° Southwest 345 397 14,100 -496 Descending Washington Center
Fri 02:10:19 PM 39.6522 -73.9422 229° Southwest 339 390 13,900 -99 Descending Washington Center
Fri 02:11:20 PM 39.5928 -74.0322 232° Southwest 329 379 13,900 48 Level Washington Center
Fri 02:12:24 PM 39.5292 -74.1358 266° West 327 376 14,000 114 Climbing FAA TRACON SMA TRACON (SMA)
Fri 02:13:05 PM 39.5250 -74.2178 272° West 318 366 14,100 74 Climbing FAA TRACON SMA TRACON (SMA)
Fri 02:13:45 PM 39.5267 -74.2886 271° West 321 369 14,100  Level FAA TRACON SMA TRACON (SMA)
Fri 02:14:24 PM 39.5281 -74.3689 271° West 323 372 14,100 -76 Level FAA TRACON SMA TRACON (SMA)
Fri 02:15:04 PM 39.5292 -74.4492 271° West 326 375 14,000 -148 Descending FAA TRACON SMA TRACON (SMA)
Fri 02:15:45 PM 39.5306 -74.5225 271° West 325 374 13,900 -1,050 Descending FAA TRACON SMA TRACON (SMA)
Fri 02:16:24 PM 39.5317 -74.6017 272° West 319 367 12,600 -1,975 Descending FAA TRACON SMA TRACON (SMA)
Fri 02:17:04 PM 39.5333 -74.6758 271° West 316 364 11,300 -1,500 Descending FAA TRACON SMA TRACON (SMA)
Fri 02:17:44 PM 39.5344 -74.7494 272° West 315 362 10,600 -900 Descending FAA TRACON SMA TRACON (SMA)
Fri 02:18:24 PM 39.5367 -74.8214 283° West 276 318 10,100 -975 Descending FAA TRACON SMA TRACON (SMA)
Fri 02:19:04 PM 39.5475 -74.8800 283° West 270 311 9,300 -1,333 Descending FAA TRACON SMA TRACON (SMA)
Fri 02:19:45 PM 39.5592 -74.9450 283° West 268 308 8,300 -1,425 Descending FAA TRACON SMA TRACON (SMA)
Fri 02:20:24 PM 39.5711 -75.0106 323° Northwest 269 310 7,400 -1,291 Descending FAA TRACON SMA TRACON (SMA)
Fri 02:21:04 PM 39.6042 -75.0433 13° North 249 287 6,600 -975 Descending FAA TRACON SMA TRACON (SMA)
Fri 02:21:44 PM 39.6489 -75.0303 30° Northeast 245 282 6,100 -450 Descending FAA TRACON SMA TRACON (SMA)
Fri 02:22:24 PM 39.6908 -74.9989 30° Northeast 250 288 6,000 -585 Descending FAA TRACON SMA TRACON (SMA)
Fri 02:23:06 PM 39.7322 -74.9678 30° Northeast 247 284 5,300 -659 Descending FAA TRACON SMA TRACON (SMA)
Fri 02:23:46 PM 39.7678 -74.9408 31° Northeast 239 275 5,100 -154 Descending FAA TRACON SMA TRACON (SMA)
Fri 02:24:24 PM 39.8019 -74.9144 10° North 199 229 5,100 -380 Level FAA TRACON SMA TRACON (SMA)
Fri 02:25:05 PM 39.8311 -74.9075 350° North 186 214 4,600 -660 Descending FAA TRACON SMA TRACON (SMA)
Fri 02:26:04 PM 39.8833 -74.9200 313° West 180 207 4,000 -727 Descending FAA TRACON SMA TRACON (SMA)
Fri 02:26:44 PM 39.9025 -74.9472 282° West 180 207 3,400 -659 Descending FAA TRACON SMA TRACON (SMA)
Fri 02:27:26 PM 39.9092 -74.9894 273° West 175 201 3,100 -225 Descending FAA TRACON SMA TRACON (SMA)
Fri 02:28:04 PM 39.9106 -75.0267 273° West 167 192 3,100  Level FAA TRACON SMA TRACON (SMA)

Login

Don't have an account? Register now (free) for customized features, flight alerts, and more!